Time;durP1;ratioP1;P1;durP2;ratioP2;P2;SDS_P1;SDS_P2;PMS_P1;PMS_P2;Temp;Humidity;BMP_temperature;BMP_pressure;BME280_temperature;BME280_humidity;BME280_pressure;Samples;Min_cycle;Max_cycle;Signal;HPM_P1;HPM_P2
2023/01/09 00:01:49;;;;;;;5.23;3.67;;;;;;;6.55;100.00;93886.66;4927312;29;20245;-85
2023/01/09 00:04:14;;;;;;;4.07;3.30;;;;;;;6.50;100.00;93882.75;4897976;29;20195;-84
2023/01/09 00:06:42;;;;;;;4.30;2.90;;;;;;;6.47;100.00;93870.22;4920345;29;20183;-84
2023/01/09 00:09:10;;;;;;;3.63;3.33;;;;;;;6.49;100.00;93868.25;4917126;29;20222;-84
2023/01/09 00:11:36;;;;;;;2.87;2.63;;;;;;;6.47;100.00;93864.25;4923701;29;20203;-84
2023/01/09 00:14:01;;;;;;;4.50;3.10;;;;;;;6.40;100.00;93858.94;4915210;29;20203;-84
2023/01/09 00:16:28;;;;;;;3.20;2.90;;;;;;;6.50;100.00;93861.34;4909954;29;20215;-84
2023/01/09 00:18:53;;;;;;;3.30;3.00;;;;;;;6.51;100.00;93845.69;4916038;29;20211;-83
2023/01/09 00:21:19;;;;;;;3.00;2.37;;;;;;;6.56;100.00;93854.72;4925100;29;20693;-84
2023/01/09 00:23:44;;;;;;;3.37;2.90;;;;;;;6.48;100.00;93852.97;4902010;29;20235;-84
2023/01/09 00:26:17;;;;;;;3.13;2.87;;;;;;;6.42;100.00;93859.56;4914757;29;20651;-82
2023/01/09 00:28:44;;;;;;;3.63;2.70;;;;;;;6.40;100.00;93853.78;4922827;29;20216;-83
2023/01/09 00:31:10;;;;;;;3.53;3.03;;;;;;;6.43;100.00;93858.59;4914450;29;20198;-84
2023/01/09 00:33:52;;;;;;;3.10;2.80;;;;;;;6.53;100.00;93843.75;4899581;29;20194;-83
2023/01/09 00:36:18;;;;;;;2.77;2.57;;;;;;;6.55;100.00;93840.22;4892924;29;20197;-85
2023/01/09 00:38:43;;;;;;;5.07;3.00;;;;;;;6.53;100.00;93846.31;4923109;29;20211;-84
2023/01/09 00:41:11;;;;;;;3.47;3.10;;;;;;;6.56;100.00;93842.63;4912828;29;20195;-84
2023/01/09 00:43:44;;;;;;;3.90;3.17;;;;;;;6.60;100.00;93836.16;4921281;29;20230;-84
2023/01/09 00:46:10;;;;;;;5.90;2.87;;;;;;;6.50;100.00;93838.94;4921520;29;20230;-84
2023/01/09 00:48:37;;;;;;;4.90;3.73;;;;;;;6.55;100.00;93832.50;4902351;29;20823;-84
2023/01/09 00:51:03;;;;;;;3.87;3.50;;;;;;;6.42;100.00;93846.69;4894598;29;20241;-84
2023/01/09 00:53:30;;;;;;;4.57;3.47;;;;;;;6.50;100.00;93844.09;4923409;29;20265;-84
2023/01/09 00:55:58;;;;;;;3.07;2.77;;;;;;;6.43;100.00;93835.38;4896865;29;20195;-84
2023/01/09 00:58:23;;;;;;;3.67;3.27;;;;;;;6.33;100.00;93844.28;4913947;29;20211;-83
2023/01/09 01:00:49;;;;;;;3.43;3.13;;;;;;;6.37;100.00;93830.91;4898874;29;20198;-84
2023/01/09 01:03:14;;;;;;;3.90;3.40;;;;;;;6.31;100.00;93826.41;4916803;29;20205;-86
2023/01/09 01:08:23;;;;;;;4.13;3.10;;;;;;;6.40;100.00;93830.56;4920883;29;20266;-84
2023/01/09 01:10:49;;;;;;;3.37;3.00;;;;;;;6.41;100.00;93828.78;4916804;29;20655;-84
2023/01/09 01:13:15;;;;;;;4.50;3.77;;;;;;;6.46;100.00;93835.09;4898824;29;20209;-84
2023/01/09 01:15:42;;;;;;;5.37;4.20;;;;;;;6.40;100.00;93829.75;4905639;29;20652;-83
2023/01/09 01:18:09;;;;;;;3.80;3.50;;;;;;;6.51;100.00;93832.00;4899897;29;20226;-84
2023/01/09 01:20:34;;;;;;;3.93;3.30;;;;;;;6.29;100.00;93820.59;4933362;28;20171;-84
2023/01/09 01:22:59;;;;;;;4.37;3.80;;;;;;;6.44;100.00;93820.72;4903819;29;20195;-84
2023/01/09 01:25:25;;;;;;;3.93;3.43;;;;;;;6.43;100.00;93819.91;4927895;29;20187;-85
2023/01/09 01:27:50;;;;;;;3.87;2.93;;;;;;;6.38;100.00;93821.41;4914353;29;20225;-84
2023/01/09 01:30:17;;;;;;;3.43;3.10;;;;;;;6.36;100.00;93829.31;4917546;29;20198;-85
2023/01/09 01:32:42;;;;;;;3.17;2.80;;;;;;;6.52;100.00;93826.66;4917327;29;20206;-85
2023/01/09 01:35:08;;;;;;;2.83;2.43;;;;;;;6.36;100.00;93839.63;4900194;29;20191;-85
2023/01/09 01:37:34;;;;;;;2.63;2.43;;;;;;;6.42;100.00;93841.50;4900170;29;20206;-84
2023/01/09 01:40:00;;;;;;;2.63;2.43;;;;;;;6.50;100.00;93844.09;4913347;29;20578;-84
2023/01/09 01:42:25;;;;;;;3.03;2.10;;;;;;;6.40;100.00;93850.41;4915864;29;20206;-84
2023/01/09 01:45:03;;;;;;;2.37;2.00;;;;;;;6.43;100.00;93847.47;4906357;29;20194;-84
2023/01/09 01:47:40;;;;;;;2.00;1.70;;;;;;;6.25;100.00;93857.97;4914595;29;20183;-84
2023/01/09 01:50:14;;;;;;;2.50;2.00;;;;;;;6.41;100.00;93846.84;4928462;29;20202;-85
2023/01/09 01:52:40;;;;;;;3.73;1.83;;;;;;;6.44;100.00;93849.09;4921490;29;20205;-85
2023/01/09 01:55:07;;;;;;;2.97;2.00;;;;;;;6.49;100.00;93850.22;4916131;29;20281;-84
2023/01/09 01:57:33;;;;;;;2.47;2.07;;;;;;;6.40;100.00;93864.09;4897551;29;20616;-84
2023/01/09 02:00:01;;;;;;;3.70;2.40;;;;;;;6.40;100.00;93866.66;4904537;29;20190;-86
2023/01/09 02:02:28;;;;;;;0.90;0.90;;;;;;;6.14;100.00;93851.38;4913990;29;20277;-85
2023/01/09 02:04:55;;;;;;;0.50;0.50;;;;;;;5.98;100.00;93853.94;4897180;29;20183;-84
2023/01/09 02:07:20;;;;;;;0.97;0.60;;;;;;;6.11;100.00;93848.34;4915080;29;20747;-84
2023/01/09 02:09:45;;;;;;;0.50;0.50;;;;;;;6.11;100.00;93835.44;4914408;29;20210;-84
2023/01/09 02:12:17;;;;;;;0.63;0.40;;;;;;;6.34;100.00;93825.25;4912971;29;20187;-85
2023/01/09 02:14:43;;;;;;;1.00;0.70;;;;;;;6.26;100.00;93823.50;4897109;29;20640;-83
2023/01/09 02:17:31;;;;;;;0.77;0.50;;;;;;;6.31;100.00;93833.31;4913801;29;20203;-84
2023/01/09 02:20:31;;;;;;;0.50;0.50;;;;;;;6.24;100.00;93823.66;4907769;29;20675;-84
2023/01/09 02:23:21;;;;;;;1.57;0.50;;;;;;;6.42;100.00;93838.94;4921460;29;20246;-84
2023/01/09 02:26:33;;;;;;;0.70;0.60;;;;;;;6.48;100.00;93838.28;4900137;29;20191;-83
2023/01/09 02:29:30;;;;;;;0.60;0.50;;;;;;;6.55;99.43;93843.59;4886811;29;20219;-84
2023/01/09 02:32:22;;;;;;;0.50;0.50;;;;;;;6.32;100.00;93835.75;4894619;29;20186;-84
2023/01/09 02:35:01;;;;;;;0.77;0.40;;;;;;;6.32;100.00;93830.59;4895688;29;20652;-84
2023/01/09 02:37:38;;;;;;;0.70;0.60;;;;;;;6.23;100.00;93834.13;4881090;29;20289;-84
2023/01/09 02:40:23;;;;;;;0.73;0.50;;;;;;;6.23;100.00;93832.38;4863376;29;20203;-84
2023/01/09 02:42:48;;;;;;;0.40;0.40;;;;;;;6.20;100.00;93848.16;4881083;29;20258;-84
2023/01/09 02:45:14;;;;;;;0.40;0.40;;;;;;;6.21;100.00;93854.94;4890780;29;20365;-84
2023/01/09 02:47:40;;;;;;;1.83;0.43;;;;;;;6.29;99.91;93851.53;4881272;29;20660;-84
2023/01/09 02:50:09;;;;;;;0.40;0.40;;;;;;;6.19;100.00;93853.47;4890919;29;20315;-84
2023/01/09 02:52:46;;;;;;;0.40;0.40;;;;;;;6.19;100.00;93850.91;4886253;29;20199;-84
2023/01/09 02:55:47;;;;;;;0.63;0.43;;;;;;;6.35;100.00;93860.38;4882626;29;20194;-84
2023/01/09 02:58:43;;;;;;;0.83;0.50;;;;;;;6.28;100.00;93857.66;4883735;29;20211;-84
2023/01/09 03:01:18;;;;;;;0.73;0.53;;;;;;;6.29;100.00;93861.03;4918992;29;20190;-84
2023/01/09 03:04:18;;;;;;;2.17;0.30;;;;;;;6.15;100.00;93868.44;4913162;29;20217;-83
2023/01/09 03:06:53;;;;;;;0.37;0.37;;;;;;;6.23;99.94;93865.06;4912067;29;20191;-84
2023/01/09 03:09:21;;;;;;;0.50;0.50;;;;;;;6.29;99.51;93867.00;4911488;29;20694;-84
2023/01/09 03:11:50;;;;;;;0.30;0.30;;;;;;;6.11;100.00;93881.84;4897071;29;20199;-84
2023/01/09 03:14:18;;;;;;;0.70;0.60;;;;;;;6.35;100.00;93897.28;4908617;29;20190;-83
2023/01/09 03:16:46;;;;;;;0.30;0.30;;;;;;;6.33;100.00;93908.72;4921827;29;20338;-84
2023/01/09 03:19:15;;;;;;;0.50;0.50;;;;;;;6.32;100.00;93920.00;4912683;29;20662;-84
2023/01/09 03:21:41;;;;;;;0.40;0.40;;;;;;;6.36;100.00;93941.91;4899993;29;20201;-84
2023/01/09 03:24:06;;;;;;;0.53;0.50;;;;;;;6.29;100.00;93939.19;4897434;29;20206;-85
2023/01/09 03:26:31;;;;;;;0.40;0.40;;;;;;;6.00;100.00;93944.78;4911355;29;20561;-83
2023/01/09 03:28:57;;;;;;;0.40;0.40;;;;;;;6.21;100.00;93958.03;4910690;29;20273;-84
2023/01/09 03:31:23;;;;;;;0.40;0.40;;;;;;;5.77;99.65;93961.78;4896090;29;20211;-83
2023/01/09 03:33:48;;;;;;;0.40;0.30;;;;;;;5.82;99.28;93978.34;4911161;29;20191;-85
2023/01/09 03:36:16;;;;;;;0.30;0.30;;;;;;;5.58;98.72;93994.56;4914911;29;20679;-84
2023/01/09 03:38:41;;;;;;;0.53;0.30;;;;;;;5.68;97.92;94002.97;4900258;29;20252;-84
2023/01/09 03:41:07;;;;;;;0.40;0.40;;;;;;;5.25;96.95;94010.81;4912433;29;20656;-83
2023/01/09 03:43:32;;;;;;;0.20;0.20;;;;;;;5.26;97.57;94010.66;4899470;29;20209;-83
2023/01/09 03:45:57;;;;;;;0.40;0.30;;;;;;;5.33;96.99;93993.63;4915822;29;20205;-84
2023/01/09 03:48:23;;;;;;;0.30;0.30;;;;;;;5.25;96.93;94003.88;4916693;29;20210;-83
2023/01/09 03:50:50;;;;;;;0.20;0.20;;;;;;;5.38;95.97;94001.69;4923782;29;20186;-83
2023/01/09 03:53:15;;;;;;;0.20;0.20;;;;;;;4.91;96.90;94008.97;4908888;29;20347;-85
2023/01/09 03:55:49;;;;;;;0.30;0.30;;;;;;;4.95;97.93;94019.81;4909326;29;20604;-84
2023/01/09 03:58:14;;;;;;;0.20;0.20;;;;;;;4.86;98.81;94021.50;4923737;29;20214;-84
2023/01/09 04:00:40;;;;;;;3.00;0.47;;;;;;;4.91;99.03;94026.19;4914609;29;20210;-84
2023/01/09 04:03:06;;;;;;;1.67;0.50;;;;;;;4.97;98.58;94025.59;4925891;29;20198;-84
2023/01/09 04:05:32;;;;;;;0.40;0.40;;;;;;;4.87;98.05;94022.31;4930977;29;20191;-84
2023/01/09 04:07:57;;;;;;;0.50;0.50;;;;;;;4.91;96.23;94029.56;4916702;29;20701;-83
2023/01/09 04:10:23;;;;;;;0.50;0.40;;;;;;;5.01;95.99;94035.41;4938940;28;20190;-84
2023/01/09 04:12:48;;;;;;;0.50;0.30;;;;;;;4.91;96.79;94034.72;4927159;28;20206;-85
2023/01/09 04:15:13;;;;;;;0.60;0.60;;;;;;;4.89;97.46;94051.25;4906997;29;20194;-85
2023/01/09 04:17:39;;;;;;;0.80;0.30;;;;;;;4.79;97.91;94054.72;4928941;29;20265;-86
2023/01/09 04:20:04;;;;;;;1.63;0.40;;;;;;;4.69;98.01;94054.00;4912301;29;20717;-84
2023/01/09 04:22:30;;;;;;;0.40;0.40;;;;;;;4.76;97.39;94067.84;4926197;29;20201;-83
2023/01/09 04:24:55;;;;;;;0.60;0.40;;;;;;;4.66;98.38;94071.47;4927331;29;20657;-84
2023/01/09 04:27:20;;;;;;;1.07;0.57;;;;;;;4.65;97.84;94083.53;4927978;29;20195;-85
2023/01/09 04:29:46;;;;;;;1.70;0.47;;;;;;;4.68;96.72;94087.56;4920189;29;20233;-85
2023/01/09 04:32:11;;;;;;;0.60;0.40;;;;;;;4.72;96.51;94081.97;4918486;29;20563;-85
2023/01/09 04:34:36;;;;;;;0.80;0.50;;;;;;;4.73;96.62;94093.88;4902531;29;20225;-85
2023/01/09 04:37:02;;;;;;;0.70;0.40;;;;;;;4.59;95.62;94081.53;4917437;29;20201;-83
2023/01/09 04:39:27;;;;;;;1.47;0.50;;;;;;;4.62;96.02;94075.31;4901949;29;20221;-85
2023/01/09 04:41:52;;;;;;;2.80;0.53;;;;;;;4.82;95.08;94076.75;4903066;29;20196;-85
2023/01/09 04:44:20;;;;;;;2.43;0.53;;;;;;;4.64;95.39;94084.47;4917299;29;20198;-85
2023/01/09 04:46:45;;;;;;;2.20;0.70;;;;;;;4.67;95.66;94102.19;4897863;29;20685;-84
2023/01/09 04:49:11;;;;;;;0.37;0.37;;;;;;;4.65;95.95;94095.56;4916084;29;20210;-83
2023/01/09 04:51:36;;;;;;;1.37;0.60;;;;;;;4.67;95.57;94098.81;4923070;29;20198;-85
2023/01/09 04:54:02;;;;;;;1.23;0.90;;;;;;;4.75;95.25;94102.25;4917510;29;20191;-84
2023/01/09 04:56:27;;;;;;;1.80;0.60;;;;;;;4.58;94.88;94105.63;4914615;29;20195;-84
2023/01/09 04:58:52;;;;;;;0.87;0.70;;;;;;;4.62;94.49;94099.25;4915663;29;20225;-85
2023/01/09 05:01:17;;;;;;;0.80;0.70;;;;;;;4.63;94.32;94097.50;4908830;29;20191;-85
2023/01/09 05:03:43;;;;;;;3.07;0.90;;;;;;;4.49;93.63;94091.88;4916372;29;20287;-85
2023/01/09 05:06:08;;;;;;;1.13;0.70;;;;;;;4.37;92.41;94097.41;4915845;29;20209;-85
2023/01/09 05:08:33;;;;;;;3.03;1.00;;;;;;;4.47;92.73;94095.56;4915733;29;20714;-84
2023/01/09 05:10:59;;;;;;;1.00;0.80;;;;;;;4.43;93.00;94104.53;4921149;29;20659;-85
2023/01/09 05:13:24;;;;;;;4.83;0.90;;;;;;;4.43;92.70;94107.09;4914695;29;20202;-85
2023/01/09 05:15:50;;;;;;;3.20;0.90;;;;;;;4.35;92.75;94122.44;4914562;29;20189;-83
2023/01/09 05:18:15;;;;;;;4.07;0.70;;;;;;;4.36;91.54;94127.44;4915157;29;20271;-85
2023/01/09 05:20:40;;;;;;;1.53;0.77;;;;;;;4.49;90.88;94116.78;4920019;29;20226;-83
2023/01/09 05:23:05;;;;;;;1.13;0.60;;;;;;;4.40;91.07;94123.59;4914158;29;20230;-84
2023/01/09 05:25:31;;;;;;;2.03;0.53;;;;;;;4.30;91.29;94122.06;4914209;29;20213;-84
2023/01/09 05:27:56;;;;;;;1.83;0.77;;;;;;;4.29;91.29;94118.69;4921332;29;20217;-84
2023/01/09 05:30:22;;;;;;;5.03;0.90;;;;;;;4.26;91.20;94132.63;4915831;29;20619;-83
2023/01/09 05:32:47;;;;;;;2.60;0.90;;;;;;;4.30;90.51;94132.34;4913895;29;20206;-84
2023/01/09 05:35:13;;;;;;;2.97;0.90;;;;;;;4.23;90.51;94132.09;4923429;29;20190;-84
2023/01/09 05:37:40;;;;;;;3.40;1.07;;;;;;;4.04;89.63;94143.28;4914830;29;20233;-83
2023/01/09 05:40:05;;;;;;;3.13;1.33;;;;;;;4.01;88.75;94153.84;4895876;29;20203;-84
2023/01/09 05:42:31;;;;;;;5.90;1.00;;;;;;;4.02;88.38;94140.06;4925877;29;20221;-84
2023/01/09 05:44:56;;;;;;;2.20;0.90;;;;;;;4.22;88.10;94154.41;4904924;29;20197;-84
2023/01/09 05:47:21;;;;;;;1.43;0.63;;;;;;;4.05;88.47;94138.94;4914488;29;20264;-84
2023/01/09 05:49:47;;;;;;;4.27;1.00;;;;;;;3.95;89.16;94151.84;4898558;29;20254;-84
2023/01/09 05:52:12;;;;;;;1.53;0.60;;;;;;;3.85;89.06;94159.56;4913104;29;20185;-84
2023/01/09 05:54:37;;;;;;;1.47;0.83;;;;;;;4.03;89.12;94166.53;4922936;29;20565;-84
2023/01/09 05:57:03;;;;;;;2.77;0.90;;;;;;;3.94;89.40;94179.28;4911738;29;20216;-84
2023/01/09 05:59:28;;;;;;;6.93;1.63;;;;;;;3.76;88.91;94180.97;4913102;29;20219;-83
2023/01/09 06:01:53;;;;;;;13.20;2.00;;;;;;;3.83;88.51;94184.59;4921330;29;20197;-84
2023/01/09 06:04:19;;;;;;;5.50;2.60;;;;;;;3.93;87.43;94187.94;4925444;29;20188;-83
2023/01/09 06:06:44;;;;;;;6.47;2.30;;;;;;;3.98;87.21;94193.47;4897226;29;20192;-83
2023/01/09 06:09:10;;;;;;;8.20;2.40;;;;;;;3.97;87.55;94191.03;4897440;29;20623;-84
2023/01/09 06:11:37;;;;;;;8.07;2.20;;;;;;;3.91;87.70;94192.41;4924547;29;20198;-83
2023/01/09 06:14:02;;;;;;;4.70;1.80;;;;;;;3.89;87.94;94190.94;4912255;29;20201;-85
2023/01/09 06:16:28;;;;;;;4.30;1.30;;;;;;;3.82;87.23;94195.00;4912322;29;20870;-84
2023/01/09 06:18:53;;;;;;;7.57;1.10;;;;;;;3.84;87.41;94203.38;4911747;29;20723;-84
2023/01/09 06:21:18;;;;;;;6.67;0.90;;;;;;;4.02;87.53;94203.47;4914290;29;20192;-85
2023/01/09 06:23:44;;;;;;;5.83;0.93;;;;;;;4.11;87.36;94198.28;4897293;29;20197;-84
2023/01/09 06:26:09;;;;;;;6.70;1.27;;;;;;;4.20;86.30;94204.34;4912391;29;20194;-84
2023/01/09 06:28:35;;;;;;;3.80;0.87;;;;;;;4.30;87.31;94212.00;4912403;29;20218;-84
2023/01/09 06:31:00;;;;;;;3.70;1.00;;;;;;;4.22;88.21;94208.38;4911415;29;20667;-84
2023/01/09 06:33:25;;;;;;;3.23;1.23;;;;;;;4.29;88.01;94205.25;4911823;29;20247;-84
2023/01/09 06:35:50;;;;;;;4.17;1.30;;;;;;;4.07;88.87;94219.28;4912089;29;20199;-86
2023/01/09 06:38:16;;;;;;;2.03;1.10;;;;;;;4.35;88.20;94220.09;4910520;29;20221;-83
2023/01/09 06:40:41;;;;;;;4.23;1.10;;;;;;;4.19;89.50;94220.69;4911472;29;20198;-85
2023/01/09 06:43:06;;;;;;;4.17;1.10;;;;;;;4.15;89.31;94206.50;4904744;29;20251;-86
2023/01/09 06:45:32;;;;;;;2.93;0.90;;;;;;;4.45;88.55;94208.81;4912092;29;20577;-85
2023/01/09 06:47:57;;;;;;;5.33;0.90;;;;;;;4.27;89.34;94200.25;4923760;29;20203;-83
2023/01/09 06:50:23;;;;;;;2.07;0.87;;;;;;;4.26;89.46;94204.59;4907857;29;20296;-84
2023/01/09 06:52:48;;;;;;;3.47;0.90;;;;;;;4.20;90.32;94200.00;4896583;29;20624;-83
2023/01/09 06:55:13;;;;;;;5.13;1.10;;;;;;;3.96;90.55;94208.19;4911972;29;20714;-84
2023/01/09 06:57:39;;;;;;;3.53;1.03;;;;;;;4.11;89.86;94211.13;4912030;29;20209;-84
2023/01/09 07:00:05;;;;;;;3.33;1.50;;;;;;;4.14;89.92;94218.53;4907345;29;20281;-84
2023/01/09 07:02:30;;;;;;;7.47;1.23;;;;;;;4.20;89.68;94212.03;4894657;29;20193;-84
2023/01/09 07:04:55;;;;;;;7.47;1.30;;;;;;;4.31;89.11;94216.19;4916167;29;20188;-83
2023/01/09 07:07:21;;;;;;;7.00;1.43;;;;;;;4.06;90.08;94217.63;4948396;29;20203;-84
2023/01/09 07:09:47;;;;;;;4.30;1.30;;;;;;;4.15;89.29;94212.47;4923857;28;20690;-86
2023/01/09 07:12:13;;;;;;;6.87;1.10;;;;;;;4.22;88.40;94228.94;4918291;29;20221;-86
2023/01/09 07:14:39;;;;;;;2.37;1.00;;;;;;;4.19;88.36;94213.81;4930651;29;20194;-85
2023/01/09 07:17:04;;;;;;;6.50;1.07;;;;;;;4.34;87.59;94224.44;4900465;29;20273;-85
2023/01/09 07:19:29;;;;;;;4.60;1.07;;;;;;;4.31;87.90;94223.91;4905501;29;20217;-88
2023/01/09 07:21:54;;;;;;;5.03;1.53;;;;;;;4.30;87.49;94227.41;4887319;29;20197;-85
2023/01/09 07:24:20;;;;;;;5.00;1.10;;;;;;;4.30;87.55;94222.28;4917751;29;20190;-86
2023/01/09 07:26:45;;;;;;;4.63;0.80;;;;;;;4.15;87.72;94229.63;4899859;29;20724;-86
2023/01/09 07:29:11;;;;;;;4.97;1.00;;;;;;;4.18;87.37;94227.59;4902430;29;20235;-86
2023/01/09 07:31:37;;;;;;;3.60;1.10;;;;;;;4.19;87.31;94234.34;4929174;29;20660;-86
2023/01/09 07:34:02;;;;;;;3.07;1.00;;;;;;;4.10;87.54;94232.63;4900211;29;20195;-85
2023/01/09 07:36:28;;;;;;;4.80;1.23;;;;;;;4.12;87.35;94235.06;4924172;29;20591;-86
2023/01/09 07:38:53;;;;;;;2.87;1.07;;;;;;;4.24;86.17;94245.03;4906028;29;20815;-86
2023/01/09 07:41:18;;;;;;;1.60;0.87;;;;;;;4.28;85.65;94258.41;4901382;29;20659;-85
2023/01/09 07:43:43;;;;;;;7.17;1.03;;;;;;;4.23;86.36;94245.16;4917584;29;20251;-86
2023/01/09 07:46:09;;;;;;;5.67;1.63;;;;;;;4.44;85.16;94244.97;4928394;29;20202;-86
2023/01/09 07:48:34;;;;;;;5.67;1.20;;;;;;;4.47;85.19;94260.09;4916286;29;20230;-85
2023/01/09 07:50:59;;;;;;;6.43;1.10;;;;;;;4.64;84.21;94259.34;4895999;29;20589;-86
2023/01/09 07:53:25;;;;;;;4.17;1.37;;;;;;;4.75;84.12;94266.84;4898498;29;20722;-86
2023/01/09 07:55:50;;;;;;;4.07;1.20;;;;;;;4.79;84.37;94272.53;4915198;29;20217;-87
2023/01/09 07:58:15;;;;;;;4.80;1.43;;;;;;;4.69;84.97;94262.28;4900419;29;20214;-85
2023/01/09 08:00:41;;;;;;;5.87;1.10;;;;;;;4.79;83.78;94272.53;4895743;29;20212;-85
2023/01/09 08:03:06;;;;;;;3.30;0.90;;;;;;;4.70;84.12;94268.25;4912379;29;20223;-84
2023/01/09 08:05:31;;;;;;;4.30;1.50;;;;;;;4.83;83.59;94266.94;4916237;29;20198;-85
2023/01/09 08:07:57;;;;;;;2.57;1.10;;;;;;;4.72;83.80;94266.34;4916904;29;20210;-84
2023/01/09 08:10:28;;;;;;;2.80;0.83;;;;;;;4.98;82.56;94266.47;4900603;29;20197;-85
2023/01/09 08:12:53;;;;;;;2.97;1.00;;;;;;;4.93;82.87;94273.78;4913239;29;20663;-84
2023/01/09 08:15:19;;;;;;;2.80;0.90;;;;;;;4.99;82.66;94284.31;4915330;29;20201;-82
2023/01/09 08:17:45;;;;;;;2.53;1.00;;;;;;;4.89;83.63;94275.84;4920642;29;20213;-84
2023/01/09 08:20:12;;;;;;;4.20;1.10;;;;;;;4.93;84.09;94279.75;4902181;29;20195;-86
2023/01/09 08:22:40;;;;;;;4.20;1.00;;;;;;;5.10;83.31;94278.16;4916332;29;20190;-86
2023/01/09 08:25:05;;;;;;;4.67;1.53;;;;;;;5.11;82.21;94279.78;4926331;29;20190;-85
2023/01/09 08:27:31;;;;;;;2.27;0.80;;;;;;;5.14;82.96;94276.13;4890398;29;20541;-87
2023/01/09 08:29:56;;;;;;;3.20;0.90;;;;;;;5.18;83.13;94285.97;4897637;29;20316;-86
2023/01/09 08:32:22;;;;;;;1.63;1.03;;;;;;;5.30;82.19;94296.84;4912042;29;20202;-84
2023/01/09 08:34:47;;;;;;;5.63;1.20;;;;;;;5.11;82.36;94300.34;4886055;29;20191;-84
2023/01/09 08:37:12;;;;;;;2.20;0.90;;;;;;;5.24;83.70;94298.25;4911930;29;20222;-84
2023/01/09 08:39:38;;;;;;;2.90;1.03;;;;;;;5.28;83.03;94294.44;4915307;29;20209;-85
2023/01/09 08:47:32;;;;;;;6.17;1.07;;;;;;;5.46;82.94;94276.41;4900044;29;20192;-85
2023/01/09 08:49:58;;;;;;;3.50;1.17;;;;;;;5.50;82.34;94280.31;4888635;29;20200;-84
2023/01/09 08:52:23;;;;;;;3.93;1.20;;;;;;;5.52;83.45;94280.16;4896552;29;20613;-84
2023/01/09 08:54:48;;;;;;;2.57;0.90;;;;;;;5.57;83.26;94288.28;4897161;29;20196;-80
2023/01/09 08:57:14;;;;;;;1.87;0.60;;;;;;;5.47;82.71;94290.09;4883250;29;20358;-81
2023/01/09 08:59:39;;;;;;;2.97;1.07;;;;;;;5.48;82.32;94289.13;4909037;29;20232;-84
2023/01/09 09:02:05;;;;;;;2.83;1.57;;;;;;;5.55;82.49;94285.03;4892582;29;20194;-83
2023/01/09 09:04:31;;;;;;;3.40;1.90;;;;;;;5.61;82.40;94287.00;4903547;29;20273;-85
2023/01/09 09:06:56;;;;;;;3.80;1.43;;;;;;;5.69;81.00;94287.88;4895112;29;20213;-85
2023/01/09 09:09:22;;;;;;;4.00;1.70;;;;;;;5.53;81.55;94286.94;4888124;29;20554;-85
2023/01/09 09:11:48;;;;;;;3.03;1.03;;;;;;;5.27;81.64;94289.44;4929310;28;20205;-83
2023/01/09 09:16:59;;;;;;;4.00;0.90;;;;;;;5.55;80.21;94290.16;4901847;29;20273;-83
2023/01/09 09:19:25;;;;;;;3.07;0.97;;;;;;;5.35;79.95;94287.75;4895843;29;20210;-83
2023/01/09 09:21:50;;;;;;;1.00;0.87;;;;;;;5.55;78.97;94290.16;4901589;29;20195;-83
2023/01/09 09:24:15;;;;;;;2.23;1.07;;;;;;;5.84;78.92;94300.25;4899037;29;20565;-84
2023/01/09 09:26:42;;;;;;;3.93;1.33;;;;;;;5.84;79.34;94298.47;4909048;29;20174;-84
2023/01/09 09:29:07;;;;;;;1.70;1.10;;;;;;;5.84;79.19;94305.41;4903313;29;20226;-85
2023/01/09 09:31:32;;;;;;;2.20;1.10;;;;;;;5.82;79.02;94312.44;4899344;29;20201;-84
2023/01/09 09:33:58;;;;;;;2.83;1.37;;;;;;;5.86;78.98;94308.63;4897168;29;20314;-85
2023/01/09 09:36:23;;;;;;;2.17;1.13;;;;;;;5.65;78.05;94306.34;4899581;29;20671;-85
2023/01/09 09:38:48;;;;;;;1.80;0.60;;;;;;;5.85;78.10;94312.97;4910143;29;20218;-86
2023/01/09 09:44:47;;;;;;;5.47;1.50;;;;;;;6.01;78.84;94321.81;4914210;29;20200;-86
2023/01/09 09:47:23;;;;;;;5.43;1.97;;;;;;;6.10;77.46;94326.09;4911494;29;20764;-87
2023/01/09 09:49:54;;;;;;;2.53;0.90;;;;;;;6.18;76.38;94319.22;4911805;29;20225;-86
2023/01/09 09:52:30;;;;;;;1.10;0.67;;;;;;;6.36;76.04;94316.59;4918802;29;20237;-85
2023/01/09 09:54:57;;;;;;;3.10;0.70;;;;;;;6.31;76.32;94334.28;4934200;29;22010;-86
2023/01/09 09:57:31;;;;;;;3.90;0.80;;;;;;;6.51;75.34;94322.78;4903455;29;20210;-85
2023/01/09 09:59:57;;;;;;;2.90;0.67;;;;;;;6.23;75.01;94327.31;4929738;29;20219;-85
2023/01/09 10:02:27;;;;;;;2.93;0.80;;;;;;;6.52;75.06;94327.00;4912288;29;20278;-85
2023/01/09 10:05:05;;;;;;;2.83;0.80;;;;;;;6.26;74.58;94321.03;4899375;29;20461;-86
2023/01/09 10:07:36;;;;;;;2.50;0.70;;;;;;;6.33;74.80;94314.31;4888029;29;20178;-86
2023/01/09 10:10:12;;;;;;;1.57;0.90;;;;;;;6.45;74.87;94312.31;4916913;29;20654;-86
2023/01/09 10:12:53;;;;;;;2.07;0.77;;;;;;;6.55;75.37;94315.56;4902388;29;20233;-84
2023/01/09 10:15:25;;;;;;;2.90;0.67;;;;;;;6.34;75.94;94312.53;4923753;29;20210;-86
2023/01/09 10:18:09;;;;;;;1.37;0.60;;;;;;;6.26;74.75;94305.56;4902347;29;20290;-86
2023/01/09 10:20:48;;;;;;;1.80;0.80;;;;;;;6.42;76.08;94315.97;4931669;29;20206;-85
2023/01/09 10:23:35;;;;;;;1.20;0.73;;;;;;;6.36;77.03;94316.59;4906878;29;20237;-85
2023/01/09 10:26:39;;;;;;;2.03;0.70;;;;;;;6.33;77.46;94306.56;4929475;29;20277;-86
2023/01/09 10:29:20;;;;;;;3.70;2.07;;;;;;;6.44;76.29;94302.91;4862485;29;20743;-84
2023/01/09 10:32:01;;;;;;;4.07;1.10;;;;;;;6.62;77.12;94300.28;4876367;29;20862;-86
2023/01/09 10:34:33;;;;;;;3.13;1.70;;;;;;;6.49;76.38;94305.88;4873104;29;20198;-85
2023/01/09 10:37:10;;;;;;;5.07;2.40;;;;;;;6.55;77.77;94299.31;4857856;29;20206;-85
2023/01/09 10:39:46;;;;;;;5.87;3.10;;;;;;;6.64;77.79;94293.22;4861420;29;20323;-86
2023/01/09 10:42:32;;;;;;;12.73;5.37;;;;;;;6.87;77.60;94289.09;4875447;29;20234;-89
2023/01/09 10:45:33;;;;;;;5.53;4.37;;;;;;;6.68;77.23;94300.47;4873461;29;20187;-89
2023/01/09 10:48:19;;;;;;;2.37;2.17;;;;;;;6.82;76.19;94294.75;4877529;29;20205;-87
2023/01/09 10:50:53;;;;;;;3.93;2.07;;;;;;;6.74;75.38;94299.06;4858977;29;20230;-89
2023/01/09 10:53:25;;;;;;;4.97;2.83;;;;;;;6.63;75.60;94301.91;4848167;29;20247;-84
2023/01/09 10:55:54;;;;;;;3.73;2.43;;;;;;;6.67;75.49;94308.38;4858261;29;20636;-84
2023/01/09 10:58:21;;;;;;;1.80;1.10;;;;;;;6.78;74.97;94302.94;4860794;29;20227;-85
2023/01/09 11:00:47;;;;;;;3.63;0.70;;;;;;;6.46;75.19;94296.69;4860028;29;20196;-86
2023/01/09 11:03:21;;;;;;;3.20;0.57;;;;;;;6.80;73.13;94298.44;4856201;29;20632;-84
2023/01/09 11:05:54;;;;;;;2.17;0.87;;;;;;;7.01;73.03;94290.28;4889866;29;20233;-87
2023/01/09 11:08:29;;;;;;;2.03;1.23;;;;;;;7.00;73.01;94279.16;4907398;29;20281;-86
2023/01/09 11:10:57;;;;;;;2.00;1.10;;;;;;;6.79;71.32;94268.44;4936997;29;20283;-84
2023/01/09 11:13:25;;;;;;;5.47;2.30;;;;;;;7.06;72.21;94264.81;4903145;29;20644;-86
2023/01/09 11:16:20;;;;;;;1.93;1.10;;;;;;;6.90;71.10;94263.00;4902960;29;20218;-85
2023/01/09 11:18:54;;;;;;;4.63;3.80;;;;;;;6.89;71.51;94266.56;4894164;29;20231;-87
2023/01/09 11:21:40;;;;;;;3.53;2.20;;;;;;;7.19;71.50;94259.22;4922177;29;20190;-86
2023/01/09 11:24:18;;;;;;;5.83;3.90;;;;;;;6.95;71.18;94255.59;4895967;29;20191;-87
2023/01/09 11:26:44;;;;;;;3.90;1.50;;;;;;;7.31;71.63;94260.50;4921102;29;20211;-88
2023/01/09 11:29:12;;;;;;;2.73;1.00;;;;;;;7.09;71.39;94260.16;4897956;29;20354;-87
2023/01/09 11:31:38;;;;;;;12.13;4.93;;;;;;;7.25;71.93;94276.66;4910511;29;20198;-88
2023/01/09 11:34:06;;;;;;;7.30;2.97;;;;;;;7.31;71.15;94270.84;4897022;29;20198;-87
2023/01/09 11:36:31;;;;;;;3.80;2.20;;;;;;;7.38;71.28;94272.63;4894985;29;20282;-88
2023/01/09 11:38:58;;;;;;;2.00;0.97;;;;;;;7.40;71.82;94280.22;4908426;29;20751;-87
2023/01/09 11:41:40;;;;;;;2.47;1.10;;;;;;;7.41;71.39;94274.09;4899534;29;20195;-87
2023/01/09 11:44:12;;;;;;;6.73;1.77;;;;;;;7.41;71.91;94284.41;4886494;29;20374;-88
2023/01/09 11:46:40;;;;;;;2.17;1.40;;;;;;;7.24;71.29;94270.66;4907908;29;20206;-88
2023/01/09 11:49:16;;;;;;;2.20;2.00;;;;;;;7.29;71.11;94277.94;4907531;29;20255;-86
2023/01/09 11:51:42;;;;;;;4.47;1.30;;;;;;;7.42;70.68;94274.88;4921185;29;20194;-87
2023/01/09 11:54:12;;;;;;;2.93;1.00;;;;;;;7.44;70.56;94273.78;4895606;29;20199;-88
2023/01/09 11:56:41;;;;;;;3.13;1.30;;;;;;;7.47;69.98;94278.63;4897516;29;20210;-87
2023/01/09 11:59:21;;;;;;;4.73;1.00;;;;;;;7.65;70.77;94271.53;4911248;29;20214;-86
2023/01/09 12:02:22;;;;;;;13.30;6.07;;;;;;;7.52;70.53;94283.31;4914443;29;20202;-87